createdAt,value
2022-10-12T00:00:43.886Z,25.01
2022-10-12T00:01:45.625Z,24.45
2022-10-12T00:02:47.342Z,24.84
2022-10-12T00:03:49.092Z,24.29
2022-10-12T00:04:50.777Z,25.01
2022-10-12T00:06:05.143Z,24.77
2022-10-12T00:07:06.822Z,24.88
2022-10-12T00:08:08.666Z,24.51
2022-10-12T00:09:10.441Z,24.72
2022-10-12T00:10:12.186Z,24.73
2022-10-12T00:11:17.687Z,24.97
2022-10-12T00:12:19.415Z,24.68
2022-10-12T00:13:21.179Z,24.24
2022-10-12T00:14:23.041Z,25.00
2022-10-12T00:15:24.742Z,25.11
2022-10-12T00:16:31.280Z,24.74
2022-10-12T00:17:33.015Z,24.69
2022-10-12T00:18:35.903Z,24.90
2022-10-12T00:19:37.658Z,24.48
2022-10-12T00:20:39.420Z,24.57
2022-10-12T00:21:41.634Z,24.93
2022-10-12T00:22:43.487Z,24.45
2022-10-12T00:23:45.866Z,24.34
2022-10-12T00:24:47.547Z,24.47
2022-10-12T00:25:49.294Z,24.27
2022-10-12T00:26:51.697Z,24.58
2022-10-12T00:27:53.599Z,24.38
2022-10-12T00:29:01.001Z,24.74
2022-10-12T00:30:02.711Z,24.85
2022-10-12T00:31:13.182Z,24.69
2022-10-12T00:32:15.435Z,24.88
2022-10-12T00:33:17.206Z,24.91
2022-10-12T00:34:18.946Z,24.62
2022-10-12T00:35:20.715Z,24.48
2022-10-12T00:36:26.553Z,24.46
2022-10-12T00:37:28.211Z,24.20
2022-10-12T00:38:29.884Z,24.98
2022-10-12T00:39:31.551Z,24.82
2022-10-12T00:40:33.374Z,24.80
2022-10-12T00:41:38.614Z,24.61
2022-10-12T00:42:40.352Z,24.54
2022-10-12T00:43:43.967Z,24.54
2022-10-12T00:44:48.231Z,24.56
2022-10-12T00:45:50.094Z,25.02
2022-10-12T00:46:54.139Z,24.34
2022-10-12T00:48:00.853Z,25.17
2022-10-12T00:49:20.642Z,24.29
2022-10-12T00:50:33.094Z,24.52
2022-10-12T00:51:34.998Z,24.11
2022-10-12T00:52:50.243Z,24.61
2022-10-12T00:54:02.520Z,24.54
2022-10-12T00:55:05.910Z,24.33
2022-10-12T00:56:13.124Z,24.94
2022-10-12T00:57:18.248Z,24.33
2022-10-12T00:58:20.310Z,24.35
2022-10-12T00:59:28.555Z,24.61
2022-10-12T01:00:31.029Z,24.65
2022-10-12T01:01:35.030Z,24.98
2022-10-12T01:02:40.078Z,25.06
2022-10-12T01:03:42.572Z,24.52
2022-10-12T01:04:44.719Z,24.91
2022-10-12T01:05:46.514Z,24.43
2022-10-12T01:06:48.410Z,24.78
2022-10-12T01:07:50.844Z,25.27
2022-10-12T01:08:55.344Z,24.51
2022-10-12T01:09:57.078Z,24.98
2022-10-12T01:10:58.903Z,25.12
2022-10-12T01:12:00.976Z,24.45
2022-10-12T01:13:03.604Z,24.71
2022-10-12T01:14:05.394Z,24.56
2022-10-12T01:15:07.820Z,24.96
2022-10-12T01:16:52.750Z,25.25
2022-10-12T01:17:54.403Z,24.37
2022-10-12T01:19:44.056Z,25.02
2022-10-12T01:21:03.802Z,24.51
2022-10-12T01:22:09.499Z,24.19
2022-10-12T01:23:34.162Z,24.88
2022-10-12T01:24:51.979Z,24.32
2022-10-12T01:26:16.776Z,24.26
2022-10-12T01:27:33.990Z,24.35
2022-10-12T01:28:54.073Z,24.82
2022-10-12T01:30:04.696Z,24.25
2022-10-12T01:31:33.126Z,24.62
2022-10-12T01:32:44.334Z,25.35
2022-10-12T01:33:51.570Z,25.18
2022-10-12T01:35:04.342Z,24.41
2022-10-12T01:36:37.580Z,24.65
2022-10-12T01:37:49.761Z,24.46
2022-10-12T01:39:07.547Z,24.99
2022-10-12T01:40:14.787Z,24.55
2022-10-12T01:41:27.071Z,24.63
2022-10-12T01:42:41.901Z,24.76
2022-10-12T01:43:45.113Z,24.55
2022-10-12T01:44:46.846Z,24.88
2022-10-12T01:45:48.651Z,24.21
2022-10-12T01:46:51.695Z,25.07
2022-10-12T01:47:55.411Z,24.65
2022-10-12T01:49:00.551Z,25.03
2022-10-12T01:50:05.741Z,24.97
2022-10-12T01:51:11.051Z,25.14
2022-10-12T01:52:27.211Z,24.35
2022-10-12T01:53:46.311Z,24.67
2022-10-12T01:54:59.063Z,25.00
2022-10-12T01:56:25.296Z,24.31
2022-10-12T01:57:45.327Z,24.69
2022-10-12T01:59:01.612Z,24.37
2022-10-12T02:00:23.580Z,24.40
2022-10-12T02:01:37.930Z,24.55
2022-10-12T02:03:07.438Z,24.95
2022-10-12T02:04:22.056Z,24.89
2022-10-12T02:05:46.449Z,24.36
2022-10-12T02:07:05.630Z,24.93
2022-10-12T02:08:32.598Z,24.91
2022-10-12T02:09:35.874Z,24.56
2022-10-12T02:10:43.207Z,24.38
2022-10-12T02:11:48.377Z,24.22
2022-10-12T02:12:51.626Z,24.94
2022-10-12T02:14:22.611Z,24.30
2022-10-12T02:15:27.074Z,24.10
2022-10-12T02:16:36.723Z,24.71
2022-10-12T02:17:41.923Z,24.52
2022-10-12T02:18:48.252Z,24.81
2022-10-12T02:19:57.773Z,24.68
2022-10-12T02:21:01.028Z,24.91
2022-10-12T02:22:06.207Z,24.86
2022-10-12T02:23:08.547Z,24.83
2022-10-12T02:24:11.918Z,24.46
2022-10-12T02:25:16.812Z,25.08
2022-10-12T02:26:20.642Z,24.65
2022-10-12T02:27:23.175Z,24.79
2022-10-12T02:28:28.021Z,24.89
2022-10-12T02:29:36.166Z,24.92
2022-10-12T02:30:46.714Z,24.74
2022-10-12T02:32:01.558Z,25.12
2022-10-12T02:33:22.498Z,24.41
2022-10-12T02:35:08.931Z,24.26
2022-10-12T02:36:16.785Z,24.14
2022-10-12T02:37:35.037Z,24.78
2022-10-12T02:38:46.795Z,24.29
2022-10-12T02:39:55.128Z,24.26
2022-10-12T02:41:01.561Z,24.58
2022-10-12T02:42:11.595Z,24.75
2022-10-12T02:43:24.009Z,25.06
2022-10-12T02:44:32.851Z,24.81
2022-10-12T02:45:35.966Z,24.53
2022-10-12T02:46:40.087Z,24.71
2022-10-12T02:47:44.371Z,24.92
2022-10-12T02:48:48.135Z,24.37
2022-10-12T02:49:51.443Z,25.00
2022-10-12T02:50:56.481Z,25.14
2022-10-12T02:51:58.750Z,25.08
2022-10-12T02:53:00.631Z,25.09
2022-10-12T02:54:03.609Z,24.55
2022-10-12T02:55:05.962Z,24.96
2022-10-12T02:56:12.487Z,24.72
2022-10-12T02:57:14.223Z,24.96
2022-10-12T02:58:16.774Z,24.68
2022-10-12T02:59:19.636Z,24.51
2022-10-12T03:00:21.515Z,24.26
2022-10-12T03:01:23.500Z,24.52
2022-10-12T03:02:25.232Z,24.79
2022-10-12T03:03:26.941Z,24.91
2022-10-12T03:04:28.864Z,24.52
2022-10-12T03:05:30.572Z,24.30
2022-10-12T03:06:32.469Z,24.99
2022-10-12T03:07:34.241Z,24.30
2022-10-12T03:08:36.089Z,24.63
2022-10-12T03:09:37.803Z,24.78
2022-10-12T03:10:39.542Z,25.04
2022-10-12T03:11:44.867Z,24.52
2022-10-12T03:12:50.142Z,24.70
2022-10-12T03:13:53.566Z,24.56
2022-10-12T03:14:55.239Z,25.02
2022-10-12T03:16:11.306Z,24.86
2022-10-12T03:17:13.050Z,24.87
2022-10-12T03:18:14.723Z,24.31
2022-10-12T03:19:16.403Z,24.25
2022-10-12T03:20:18.067Z,24.49
2022-10-12T03:21:20.150Z,25.03
2022-10-12T03:22:21.830Z,24.29
2022-10-12T03:23:23.666Z,24.34
2022-10-12T03:24:25.418Z,24.48
2022-10-12T03:25:27.123Z,25.13
2022-10-12T03:26:28.927Z,24.34
2022-10-12T03:27:30.982Z,24.65
2022-10-12T03:28:33.070Z,24.93
2022-10-12T03:29:34.839Z,25.07
2022-10-12T03:30:36.613Z,24.31
2022-10-12T03:31:38.511Z,25.00
2022-10-12T03:32:40.436Z,24.95
2022-10-12T03:33:42.099Z,24.86
2022-10-12T03:34:43.915Z,24.90
2022-10-12T03:35:46.342Z,24.50
2022-10-12T03:36:47.990Z,24.60
2022-10-12T03:37:49.839Z,24.41
2022-10-12T03:38:51.608Z,24.92
2022-10-12T03:39:53.307Z,24.51
2022-10-12T03:40:55.012Z,24.94
2022-10-12T03:41:56.759Z,24.81
2022-10-12T03:42:58.490Z,24.88
2022-10-12T03:44:00.461Z,24.33
2022-10-12T03:45:02.129Z,24.32
2022-10-12T03:46:04.023Z,24.50
2022-10-12T03:47:05.717Z,24.69
2022-10-12T03:48:07.571Z,24.53
2022-10-12T03:49:09.318Z,25.00
2022-10-12T03:50:10.998Z,24.86
2022-10-12T03:51:12.768Z,25.08
2022-10-12T03:52:14.607Z,25.05
2022-10-12T03:53:17.366Z,24.87
2022-10-12T03:54:19.070Z,24.62
2022-10-12T03:55:20.941Z,24.78
2022-10-12T03:56:22.663Z,24.76
2022-10-12T03:57:24.461Z,24.29
2022-10-12T03:58:26.155Z,24.78
2022-10-12T03:59:27.816Z,24.69
2022-10-12T04:00:30.158Z,24.89
2022-10-12T04:01:32.343Z,25.03
2022-10-12T04:02:34.268Z,24.48
2022-10-12T04:03:36.753Z,24.43
2022-10-12T04:04:38.460Z,25.17
2022-10-12T04:05:41.022Z,24.20
2022-10-12T04:06:42.911Z,24.50
2022-10-12T04:07:44.636Z,24.96
2022-10-12T04:08:50.720Z,24.78
2022-10-12T04:09:52.798Z,25.00
2022-10-12T04:10:54.987Z,24.35
2022-10-12T04:11:56.671Z,24.56
2022-10-12T04:12:58.921Z,24.40
2022-10-12T04:14:00.644Z,24.86
2022-10-12T04:15:02.427Z,24.60
2022-10-12T04:16:05.970Z,24.40
2022-10-12T04:17:07.763Z,24.94
2022-10-12T04:18:09.474Z,24.94
2022-10-12T04:19:15.022Z,25.13
2022-10-12T04:20:16.867Z,24.35
2022-10-12T04:21:21.963Z,24.55
2022-10-12T04:22:26.366Z,24.22
2022-10-12T04:23:28.675Z,25.00
2022-10-12T04:24:30.433Z,25.03
2022-10-12T04:25:32.169Z,24.44
2022-10-12T04:26:33.893Z,24.24
2022-10-12T04:27:35.799Z,24.29
2022-10-12T04:28:37.811Z,24.72
2022-10-12T04:29:39.619Z,24.46
2022-10-12T04:30:41.415Z,24.28
2022-10-12T04:31:43.322Z,24.82
2022-10-12T04:32:45.270Z,24.68
2022-10-12T04:33:47.202Z,24.25
2022-10-12T04:34:48.943Z,25.03
2022-10-12T04:35:51.039Z,24.22
2022-10-12T04:36:52.707Z,24.41
2022-10-12T04:37:54.473Z,24.69
2022-10-12T04:39:00.852Z,24.91
2022-10-12T04:40:03.395Z,24.74
2022-10-12T04:41:05.663Z,24.31
2022-10-12T04:42:07.489Z,24.69
2022-10-12T04:43:09.251Z,24.28
2022-10-12T04:44:11.034Z,24.82
2022-10-12T04:45:12.816Z,24.74
2022-10-12T04:46:14.722Z,25.12
2022-10-12T04:47:16.633Z,24.65
2022-10-12T04:48:18.297Z,24.95
2022-10-12T04:49:20.019Z,24.91
2022-10-12T04:50:26.206Z,24.32
2022-10-12T04:51:30.893Z,24.43
2022-10-12T04:52:32.851Z,24.25
2022-10-12T04:53:34.523Z,25.07
2022-10-12T04:54:36.330Z,25.06
2022-10-12T04:55:38.246Z,24.37
2022-10-12T04:56:43.074Z,24.97
2022-10-12T04:57:47.376Z,24.65
2022-10-12T04:58:49.211Z,24.40
2022-10-12T04:59:50.942Z,24.20
2022-10-12T05:00:52.658Z,25.06
2022-10-12T05:01:54.634Z,24.61
2022-10-12T05:02:56.416Z,24.22
2022-10-12T05:03:58.091Z,24.25
2022-10-12T05:04:59.766Z,24.78
2022-10-12T05:06:01.527Z,24.54
2022-10-12T05:07:03.379Z,24.51
2022-10-12T05:08:05.612Z,25.05
2022-10-12T05:09:07.399Z,24.43
2022-10-12T05:10:09.397Z,24.89
2022-10-12T05:11:11.086Z,24.47
2022-10-12T05:12:12.897Z,25.03
2022-10-12T05:13:15.190Z,24.37
2022-10-12T05:14:16.955Z,24.50
2022-10-12T05:15:18.748Z,24.90
2022-10-12T05:16:20.455Z,24.99
2022-10-12T05:17:22.195Z,24.92
2022-10-12T05:18:24.354Z,25.07
2022-10-12T05:19:26.006Z,24.56
2022-10-12T05:20:27.731Z,24.23
2022-10-12T05:21:29.639Z,24.43
2022-10-12T05:22:31.846Z,24.34
2022-10-12T05:23:33.607Z,24.16
2022-10-12T05:24:35.528Z,24.24
2022-10-12T05:25:37.335Z,23.74
2022-10-12T05:26:39.207Z,24.18
2022-10-12T05:27:41.233Z,23.91
2022-10-12T05:28:43.124Z,24.07
2022-10-12T05:29:44.943Z,23.60
2022-10-12T05:30:50.913Z,24.36
2022-10-12T05:31:53.510Z,23.71
2022-10-12T05:32:55.243Z,23.91
2022-10-12T05:33:56.990Z,24.64
2022-10-12T05:34:58.768Z,24.28
2022-10-12T05:36:00.461Z,23.84
2022-10-12T05:37:02.680Z,24.26
2022-10-12T05:38:04.431Z,23.71
2022-10-12T05:39:06.383Z,24.17
2022-10-12T05:40:08.626Z,23.92
2022-10-12T05:41:10.541Z,23.79
2022-10-12T05:42:12.309Z,23.24
2022-10-12T05:43:13.980Z,23.39
2022-10-12T05:44:15.742Z,23.73
2022-10-12T05:45:17.526Z,23.52
2022-10-12T05:46:19.399Z,23.33
2022-10-12T05:47:21.087Z,23.47
2022-10-12T05:48:23.339Z,23.32
2022-10-12T05:49:25.200Z,23.07
2022-10-12T05:50:27.004Z,23.43
2022-10-12T05:51:29.149Z,22.96
2022-10-12T05:52:30.987Z,23.61
2022-10-12T05:53:32.831Z,22.94
2022-10-12T05:54:34.686Z,22.95
2022-10-12T05:55:36.427Z,23.21
2022-10-12T05:56:38.213Z,23.39
2022-10-12T05:57:40.371Z,22.99
2022-10-12T05:58:42.428Z,23.59
2022-10-12T05:59:44.140Z,22.94
2022-10-12T06:00:45.906Z,23.05
2022-10-12T06:01:48.078Z,23.31
2022-10-12T06:02:49.963Z,23.07
2022-10-12T06:03:52.060Z,22.75
2022-10-12T06:04:53.810Z,22.80
2022-10-12T06:05:55.531Z,22.68
2022-10-12T06:06:57.327Z,22.75
2022-10-12T06:07:59.227Z,23.07
2022-10-12T06:09:00.931Z,22.81
2022-10-12T06:10:02.827Z,22.87
2022-10-12T06:11:05.130Z,22.98
2022-10-12T06:12:07.581Z,23.01
2022-10-12T06:13:09.193Z,23.13
2022-10-12T06:14:10.968Z,23.12
2022-10-12T06:15:12.775Z,22.47
2022-10-12T06:16:14.738Z,22.88
2022-10-12T06:17:16.423Z,22.84
2022-10-12T06:18:18.844Z,23.14
2022-10-12T06:19:20.508Z,22.56
2022-10-12T06:20:22.197Z,22.50
2022-10-12T06:21:39.229Z,22.47
2022-10-12T06:22:41.244Z,22.59
2022-10-12T06:23:43.145Z,22.38
2022-10-12T06:24:44.901Z,23.20
2022-10-12T06:25:48.184Z,22.97
2022-10-12T06:26:49.857Z,23.15
2022-10-12T06:27:51.681Z,22.65
2022-10-12T06:28:53.435Z,22.95
2022-10-12T06:29:55.247Z,22.70
2022-10-12T06:30:58.791Z,23.33
2022-10-12T06:32:00.565Z,23.17
2022-10-12T06:33:02.289Z,23.19
2022-10-12T06:34:04.066Z,23.22
2022-10-12T06:35:06.327Z,22.82
2022-10-12T06:36:08.370Z,22.91
2022-10-12T06:37:20.390Z,22.42
2022-10-12T06:38:26.991Z,22.97
2022-10-12T06:39:28.731Z,22.81
2022-10-12T06:40:30.489Z,22.90
2022-10-12T06:41:32.291Z,22.76
2022-10-12T06:42:34.006Z,22.69
2022-10-12T06:43:35.716Z,23.29
2022-10-12T06:44:37.466Z,22.57
2022-10-12T06:45:41.102Z,22.85
2022-10-12T06:46:42.806Z,22.45
2022-10-12T06:47:44.913Z,22.83
2022-10-12T06:48:46.582Z,22.32
2022-10-12T06:49:48.242Z,22.23
2022-10-12T06:50:49.975Z,22.69
2022-10-12T06:51:51.719Z,23.08
2022-10-12T06:52:54.207Z,22.42
2022-10-12T06:53:56.890Z,23.06
2022-10-12T06:54:58.556Z,23.14
2022-10-12T06:56:00.524Z,22.82
2022-10-12T06:57:02.643Z,22.76
2022-10-12T06:58:04.329Z,22.82
2022-10-12T06:59:06.473Z,23.16
2022-10-12T07:00:09.095Z,22.68
2022-10-12T07:01:10.932Z,23.11
2022-10-12T07:02:12.647Z,22.76
2022-10-12T07:03:14.452Z,23.19
2022-10-12T07:04:19.151Z,22.52
2022-10-12T07:05:21.595Z,22.42
2022-10-12T07:06:23.404Z,23.06
2022-10-12T07:07:25.164Z,22.27
2022-10-12T07:08:26.936Z,22.67
2022-10-12T07:09:28.936Z,22.92
2022-10-12T07:10:30.731Z,22.98
2022-10-12T07:11:32.426Z,22.69
2022-10-12T07:12:37.332Z,22.90
2022-10-12T07:13:39.259Z,22.44
2022-10-12T07:14:40.946Z,22.37
2022-10-12T07:15:49.901Z,22.27
2022-10-12T07:16:55.283Z,23.07
2022-10-12T07:17:57.351Z,22.75
2022-10-12T07:18:59.151Z,22.30
2022-10-12T07:20:00.947Z,22.50
2022-10-12T07:21:02.988Z,22.71
2022-10-12T07:22:04.841Z,22.97
2022-10-12T07:23:06.499Z,22.34
2022-10-12T07:24:11.894Z,22.97
2022-10-12T07:25:13.649Z,22.79
2022-10-12T07:26:15.393Z,22.83
2022-10-12T07:27:17.065Z,23.04
2022-10-12T07:28:19.902Z,22.46
2022-10-12T07:29:21.741Z,22.23
2022-10-12T07:30:23.538Z,22.71
2022-10-12T07:31:25.362Z,22.69
2022-10-12T07:32:27.054Z,22.75
2022-10-12T07:33:32.260Z,22.60
2022-10-12T07:34:34.607Z,22.39
2022-10-12T07:35:51.453Z,22.24
2022-10-12T07:36:59.746Z,22.55
2022-10-12T07:38:02.735Z,23.04
2022-10-12T07:39:04.444Z,22.62
2022-10-12T07:40:07.042Z,22.38
2022-10-12T07:41:08.826Z,22.77
2022-10-12T07:42:11.914Z,22.36
2022-10-12T07:43:16.335Z,22.26
2022-10-12T07:44:19.694Z,22.55
2022-10-12T07:45:23.326Z,22.86
2022-10-12T07:46:26.100Z,22.72
2022-10-12T07:47:27.815Z,22.42
2022-10-12T07:48:29.583Z,22.27
2022-10-12T07:49:31.287Z,22.46
2022-10-12T07:50:33.095Z,22.38
2022-10-12T07:51:34.918Z,22.49
2022-10-12T07:52:36.683Z,22.12
2022-10-12T07:53:39.483Z,22.45
2022-10-12T07:54:41.559Z,22.47
2022-10-12T07:55:43.270Z,22.92
2022-10-12T07:56:46.671Z,23.00
2022-10-12T07:57:48.500Z,22.26
2022-10-12T07:58:52.775Z,22.50
2022-10-12T07:59:54.542Z,22.86
2022-10-12T08:00:56.355Z,22.33
2022-10-12T08:01:58.160Z,22.39
2022-10-12T08:02:59.992Z,22.34
2022-10-12T08:04:02.338Z,22.70
2022-10-12T08:05:04.487Z,22.28
2022-10-12T08:06:13.524Z,22.99
2022-10-12T08:07:15.411Z,23.07
2022-10-12T08:08:17.086Z,22.85
2022-10-12T08:09:18.895Z,22.67
2022-10-12T08:10:20.851Z,22.66
2022-10-12T08:11:22.563Z,23.04
2022-10-12T08:12:24.342Z,22.60
2022-10-12T08:13:25.999Z,22.23
2022-10-12T08:14:27.759Z,22.29
2022-10-12T08:15:29.601Z,22.42
2022-10-12T08:16:31.447Z,22.34
2022-10-12T08:17:33.134Z,22.30
2022-10-12T08:18:34.803Z,22.37
2022-10-12T08:19:36.683Z,22.14
2022-10-12T08:20:39.645Z,22.84
2022-10-12T08:21:42.778Z,22.71
2022-10-12T08:22:44.557Z,22.98
2022-10-12T08:23:47.150Z,22.75
2022-10-12T08:24:48.850Z,23.03
2022-10-12T08:25:54.778Z,22.26
2022-10-12T08:27:01.059Z,22.20
2022-10-12T08:28:03.219Z,22.62
2022-10-12T08:29:08.249Z,22.34
2022-10-12T08:30:10.614Z,22.66
2022-10-12T08:31:15.174Z,22.38
2022-10-12T08:32:16.911Z,23.02
2022-10-12T08:33:18.961Z,22.41
2022-10-12T08:34:20.806Z,22.29
2022-10-12T08:35:22.521Z,22.72
2022-10-12T08:36:24.588Z,22.96
2022-10-12T08:37:26.365Z,22.29
2022-10-12T08:38:28.027Z,22.38
2022-10-12T08:39:29.778Z,22.76
2022-10-12T08:40:34.784Z,22.35
2022-10-12T08:41:39.573Z,22.40
2022-10-12T08:43:00.896Z,22.26
2022-10-12T08:44:17.873Z,22.84
2022-10-12T08:45:31.845Z,22.70
2022-10-12T08:46:33.695Z,22.97
2022-10-12T08:47:38.492Z,22.64
2022-10-12T08:48:48.287Z,22.90
2022-10-12T08:49:51.193Z,22.60
2022-10-12T08:52:01.812Z,22.27
2022-10-12T08:53:17.401Z,22.90
2022-10-12T08:54:26.105Z,22.25
2022-10-12T08:55:44.326Z,22.88
2022-10-12T08:56:46.210Z,22.29
2022-10-12T08:57:49.949Z,22.23
2022-10-12T08:58:53.415Z,22.80
2022-10-12T08:59:55.150Z,22.74
2022-10-12T09:01:26.296Z,22.79
2022-10-12T09:02:49.621Z,22.94
2022-10-12T09:03:57.508Z,22.82
2022-10-12T09:05:03.773Z,22.29
2022-10-12T09:06:13.096Z,22.94
2022-10-12T09:07:29.664Z,22.61
2022-10-12T09:08:51.592Z,22.29
2022-10-12T09:09:55.936Z,22.07
2022-10-12T09:11:18.152Z,22.22
2022-10-12T09:12:37.006Z,22.91
2022-10-12T09:14:09.119Z,22.27
2022-10-12T09:15:16.510Z,22.44
2022-10-12T09:16:27.815Z,22.52
2022-10-12T09:17:49.919Z,22.85
2022-10-12T09:18:55.240Z,22.28
2022-10-12T09:20:04.838Z,22.86
2022-10-12T09:21:12.157Z,22.21
2022-10-12T09:22:19.409Z,22.70
2022-10-12T09:23:21.134Z,22.66
2022-10-12T09:24:27.652Z,23.04
2022-10-12T09:25:29.607Z,22.56
2022-10-12T09:26:40.081Z,22.39
2022-10-12T09:27:45.383Z,23.14
2022-10-12T09:28:58.271Z,22.32
2022-10-12T09:30:03.607Z,22.65
2022-10-12T09:32:28.458Z,22.45
2022-10-12T09:33:41.949Z,22.31
2022-10-12T09:34:45.145Z,22.37
2022-10-12T09:35:47.749Z,22.48
2022-10-12T09:36:49.741Z,22.55
2022-10-12T09:37:53.924Z,22.70
2022-10-12T09:39:00.087Z,22.19
2022-10-12T09:40:02.319Z,22.42
2022-10-12T09:41:04.098Z,22.56
2022-10-12T09:42:05.855Z,22.33
2022-10-12T09:43:07.878Z,22.53
2022-10-12T09:44:27.438Z,22.34
2022-10-12T09:45:32.955Z,22.80
2022-10-12T09:46:42.924Z,22.32
2022-10-12T09:48:13.313Z,22.20
2022-10-12T09:49:15.138Z,22.01
2022-10-12T09:50:41.591Z,22.96
2022-10-12T09:51:44.287Z,22.12
2022-10-12T09:52:46.115Z,22.07
2022-10-12T09:53:52.037Z,22.51
2022-10-12T09:56:14.624Z,22.61
2022-10-12T09:58:26.760Z,22.71
2022-10-12T09:59:37.399Z,22.75
2022-10-12T10:00:39.139Z,22.60
2022-10-12T10:01:40.834Z,23.00
2022-10-12T10:02:51.227Z,22.47
2022-10-12T10:04:16.122Z,23.06
2022-10-12T10:05:26.904Z,22.35
2022-10-12T10:06:28.582Z,22.32
2022-10-12T10:07:33.549Z,22.83
2022-10-12T10:08:53.303Z,22.62
2022-10-12T10:10:04.131Z,22.84
2022-10-12T10:11:06.091Z,22.09
2022-10-12T10:12:26.782Z,22.14
2022-10-12T10:13:30.835Z,22.41
2022-10-12T10:14:33.645Z,22.50
2022-10-12T10:16:49.296Z,22.44
2022-10-12T10:17:54.340Z,22.62
2022-10-12T10:18:57.410Z,22.54
2022-10-12T10:20:03.082Z,22.82
2022-10-12T10:21:08.138Z,22.13
2022-10-12T10:23:25.195Z,22.63
2022-10-12T10:24:30.865Z,22.75
2022-10-12T10:25:34.410Z,22.46
2022-10-12T10:27:05.810Z,22.89
2022-10-12T10:28:24.025Z,22.22
2022-10-12T10:29:28.726Z,22.38
2022-10-12T10:30:33.947Z,22.13
2022-10-12T10:31:39.691Z,22.27
2022-10-12T10:32:42.727Z,22.23
2022-10-12T10:33:44.731Z,22.68
2022-10-12T10:34:46.514Z,22.89
2022-10-12T10:35:59.316Z,22.15
2022-10-12T10:37:01.070Z,22.21
2022-10-12T10:39:08.736Z,22.04
2022-10-12T10:40:24.291Z,22.75
2022-10-12T10:41:31.545Z,22.25
2022-10-12T10:42:34.818Z,22.38
2022-10-12T10:43:36.690Z,22.80
2022-10-12T10:44:38.599Z,22.41
2022-10-12T10:45:49.601Z,22.26
2022-10-12T10:46:52.695Z,22.34
2022-10-12T10:48:01.366Z,22.43
2022-10-12T10:49:07.436Z,22.66
2022-10-12T10:50:25.770Z,22.69
2022-10-12T10:51:54.147Z,22.65
2022-10-12T10:52:59.931Z,22.51
2022-10-12T10:54:15.118Z,22.22
2022-10-12T10:55:21.006Z,22.52
2022-10-12T10:56:32.075Z,22.28
2022-10-12T10:57:35.703Z,22.66
2022-10-12T10:58:38.539Z,22.05
2022-10-12T10:59:50.202Z,22.32
2022-10-12T11:00:56.741Z,22.15
2022-10-12T11:02:04.350Z,22.06
2022-10-12T11:03:34.155Z,21.94
2022-10-12T11:04:41.363Z,22.66
2022-10-12T11:05:52.648Z,22.24
2022-10-12T11:06:58.481Z,22.41
2022-10-12T11:08:12.434Z,22.05
2022-10-12T11:09:24.719Z,22.06
2022-10-12T11:10:52.948Z,22.25
2022-10-12T11:12:01.226Z,22.30
2022-10-12T11:13:21.412Z,21.95
2022-10-12T11:14:31.138Z,22.70
2022-10-12T11:15:46.754Z,22.35
2022-10-12T11:17:16.075Z,22.05
2022-10-12T11:18:38.978Z,22.17
2022-10-12T11:20:03.607Z,22.23
2022-10-12T11:21:13.369Z,21.85
2022-10-12T11:22:30.550Z,22.47
2022-10-12T11:23:32.173Z,22.34
2022-10-12T11:24:42.945Z,22.77
2022-10-12T11:25:54.783Z,22.66
2022-10-12T11:27:05.784Z,22.67
2022-10-12T11:28:10.570Z,21.93
2022-10-12T11:29:15.053Z,22.37
2022-10-12T11:30:24.111Z,22.04
2022-10-12T11:31:38.218Z,22.37
2022-10-12T11:32:42.895Z,21.93
2022-10-12T11:33:46.357Z,22.10
2022-10-12T11:35:16.374Z,22.57
2022-10-12T11:36:23.795Z,22.32
2022-10-12T11:37:32.451Z,22.53
2022-10-12T11:38:41.134Z,22.14
2022-10-12T11:39:48.088Z,22.38
2022-10-12T11:41:34.368Z,21.83
2022-10-12T11:42:43.560Z,22.14
2022-10-12T11:44:32.322Z,22.13
2022-10-12T11:45:41.871Z,22.04
2022-10-12T11:47:06.718Z,22.28
2022-10-12T11:48:16.515Z,22.38
2022-10-12T11:49:29.262Z,22.21
2022-10-12T11:50:40.469Z,22.26
2022-10-12T11:51:47.406Z,22.27
2022-10-12T11:52:52.191Z,22.56
2022-10-12T11:54:04.270Z,21.83
2022-10-12T11:55:33.494Z,22.21
2022-10-12T11:56:39.585Z,21.93
2022-10-12T11:57:41.580Z,22.57
2022-10-12T11:59:02.111Z,22.22
2022-10-12T12:00:41.760Z,22.06
2022-10-12T12:01:49.383Z,22.06
2022-10-12T12:03:03.084Z,22.39
2022-10-12T12:04:22.716Z,22.40
2022-10-12T12:05:32.927Z,22.03
2022-10-12T12:06:34.645Z,22.22
2022-10-12T12:07:50.250Z,21.93
2022-10-12T12:08:54.772Z,22.61
2022-10-12T12:09:56.559Z,22.41
2022-10-12T12:11:17.775Z,22.92
2022-10-12T12:12:25.279Z,22.32
2022-10-12T12:13:28.513Z,22.24
2022-10-12T12:14:30.247Z,22.83
2022-10-12T12:15:32.003Z,22.77
2022-10-12T12:16:42.236Z,22.82
2022-10-12T12:18:04.870Z,22.34
2022-10-12T12:19:31.335Z,22.09
2022-10-12T12:20:45.178Z,22.69
2022-10-12T12:22:14.882Z,22.02
2022-10-12T12:23:27.099Z,22.59
2022-10-12T12:24:28.921Z,22.26
2022-10-12T12:25:33.003Z,22.56
2022-10-12T12:26:34.717Z,22.69
2022-10-12T12:27:43.526Z,22.78
2022-10-12T12:28:47.867Z,22.19
2022-10-12T12:29:52.555Z,22.20
2022-10-12T12:31:01.350Z,22.46
2022-10-12T12:32:03.198Z,21.96
2022-10-12T12:33:27.602Z,22.11
2022-10-12T12:34:29.493Z,22.20
2022-10-12T12:35:39.015Z,22.05
2022-10-12T12:36:46.929Z,22.61
2022-10-12T12:37:49.678Z,22.61
2022-10-12T12:38:52.185Z,22.63
2022-10-12T12:39:57.163Z,22.34
2022-10-12T12:41:03.683Z,22.76
2022-10-12T12:42:08.990Z,22.56
2022-10-12T12:43:28.895Z,22.08
2022-10-12T12:44:42.774Z,22.33
2022-10-12T12:46:12.066Z,22.57
2022-10-12T12:47:45.279Z,22.30
2022-10-12T12:48:43.923Z,22.63
2022-10-12T12:49:50.614Z,22.44
2022-10-12T12:50:58.871Z,22.53
2022-10-12T12:52:00.981Z,22.41
2022-10-12T12:53:08.463Z,22.25
2022-10-12T12:54:20.348Z,22.46
2022-10-12T12:55:48.377Z,22.22
2022-10-12T12:57:09.707Z,22.78
2022-10-12T12:58:20.485Z,22.62
2022-10-12T12:59:50.535Z,22.74
2022-10-12T13:01:04.998Z,22.43
2022-10-12T13:02:29.956Z,22.55
2022-10-12T13:03:54.590Z,22.66
2022-10-12T13:05:26.896Z,22.58
2022-10-12T13:06:28.595Z,22.69
2022-10-12T13:07:54.395Z,22.85
2022-10-12T13:09:25.506Z,22.48
2022-10-12T13:10:38.059Z,22.01
2022-10-12T13:11:56.874Z,21.91
2022-10-12T13:13:28.431Z,22.49
2022-10-12T13:14:48.060Z,22.90
2022-10-12T13:16:08.786Z,22.77
2022-10-12T13:17:32.404Z,22.15
2022-10-12T13:19:03.669Z,22.92
2022-10-12T13:20:17.655Z,22.59
2022-10-12T13:21:29.696Z,22.22
2022-10-12T13:22:35.351Z,22.67
2022-10-12T13:23:37.322Z,22.83
2022-10-12T13:25:07.719Z,22.61
2022-10-12T13:26:11.132Z,22.97
2022-10-12T13:27:32.958Z,23.03
2022-10-12T13:28:39.825Z,23.09
2022-10-12T13:29:59.500Z,22.98
2022-10-12T13:31:04.273Z,22.77
2022-10-12T13:32:16.553Z,23.11
2022-10-12T13:33:34.261Z,22.55
2022-10-12T13:34:45.215Z,23.13
2022-10-12T13:36:00.383Z,22.75
2022-10-12T13:37:04.655Z,23.01
2022-10-12T13:38:12.668Z,22.74
2022-10-12T13:39:17.675Z,22.94
2022-10-12T13:41:03.943Z,22.64
2022-10-12T13:42:06.505Z,22.84
2022-10-12T13:43:23.168Z,22.71
2022-10-12T13:44:31.091Z,22.59
2022-10-12T13:45:32.807Z,22.69
2022-10-12T13:46:36.787Z,22.68
2022-10-12T13:47:42.521Z,23.05
2022-10-12T13:49:04.687Z,23.25
2022-10-12T13:50:17.168Z,23.03
2022-10-12T13:51:25.375Z,22.68
2022-10-12T13:52:32.985Z,22.92
2022-10-12T13:53:38.145Z,23.01
2022-10-12T13:54:43.798Z,23.17
2022-10-12T13:56:04.568Z,23.06
2022-10-12T13:57:41.046Z,22.58
2022-10-12T13:58:43.122Z,23.16
2022-10-12T13:59:47.139Z,22.37
2022-10-12T14:00:49.942Z,23.22
2022-10-12T14:01:59.224Z,22.88
2022-10-12T14:03:03.904Z,22.54
2022-10-12T14:04:06.355Z,23.06
2022-10-12T14:05:20.020Z,22.86
2022-10-12T14:06:30.915Z,23.27
2022-10-12T14:07:36.148Z,23.17
2022-10-12T14:08:38.141Z,23.20
2022-10-12T14:09:44.537Z,23.12
2022-10-12T14:10:46.331Z,23.07
2022-10-12T14:11:49.690Z,22.64
2022-10-12T14:12:53.779Z,23.27
2022-10-12T14:13:56.780Z,22.70
2022-10-12T14:14:58.686Z,22.94
2022-10-12T14:16:04.594Z,23.09
2022-10-12T14:17:06.813Z,22.75
2022-10-12T14:18:35.792Z,23.31
2022-10-12T14:19:40.370Z,22.92
2022-10-12T14:20:42.131Z,22.50
2022-10-12T14:21:46.831Z,23.14
2022-10-12T14:22:49.603Z,22.94
2022-10-12T14:23:55.227Z,22.63
2022-10-12T14:25:10.407Z,22.72
2022-10-12T14:26:29.191Z,23.18
2022-10-12T14:27:38.005Z,23.31
2022-10-12T14:28:39.803Z,23.29